sensor_id;sensor_type;location;lat;lon;timestamp;P1;durP1;ratioP1;P2;durP2;ratioP2
23280;SDS011;11809;56.390;-3.266;2023-01-30T00:01:00;1.90;;;0.63;;
23280;SDS011;11809;56.390;-3.266;2023-01-30T00:03:29;2.38;;;0.50;;
23280;SDS011;11809;56.390;-3.266;2023-01-30T00:05:56;2.20;;;0.70;;
23280;SDS011;11809;56.390;-3.266;2023-01-30T00:08:23;1.52;;;0.45;;
23280;SDS011;11809;56.390;-3.266;2023-01-30T00:10:50;2.55;;;0.60;;
23280;SDS011;11809;56.390;-3.266;2023-01-30T00:13:18;1.63;;;0.50;;
23280;SDS011;11809;56.390;-3.266;2023-01-30T00:15:46;2.58;;;0.90;;
23280;SDS011;11809;56.390;-3.266;2023-01-30T00:18:13;3.72;;;0.60;;
23280;SDS011;11809;56.390;-3.266;2023-01-30T00:20:40;0.98;;;0.60;;
23280;SDS011;11809;56.390;-3.266;2023-01-30T00:23:07;1.60;;;0.60;;
23280;SDS011;11809;56.390;-3.266;2023-01-30T00:25:34;3.08;;;0.52;;
23280;SDS011;11809;56.390;-3.266;2023-01-30T00:28:01;2.40;;;0.70;;
23280;SDS011;11809;56.390;-3.266;2023-01-30T00:30:28;2.35;;;0.82;;
23280;SDS011;11809;56.390;-3.266;2023-01-30T00:32:56;2.72;;;0.68;;
23280;SDS011;11809;56.390;-3.266;2023-01-30T00:35:24;1.10;;;0.50;;
23280;SDS011;11809;56.390;-3.266;2023-01-30T00:37:54;2.60;;;0.63;;
23280;SDS011;11809;56.390;-3.266;2023-01-30T00:40:23;1.58;;;0.43;;
23280;SDS011;11809;56.390;-3.266;2023-01-30T00:42:51;2.35;;;0.60;;
23280;SDS011;11809;56.390;-3.266;2023-01-30T00:45:57;1.50;;;0.65;;
23280;SDS011;11809;56.390;-3.266;2023-01-30T00:48:43;3.40;;;0.60;;
23280;SDS011;11809;56.390;-3.266;2023-01-30T00:51:10;1.00;;;0.40;;
23280;SDS011;11809;56.390;-3.266;2023-01-30T00:53:37;1.67;;;0.60;;
23280;SDS011;11809;56.390;-3.266;2023-01-30T00:56:04;3.28;;;0.50;;
23280;SDS011;11809;56.390;-3.266;2023-01-30T00:58:31;0.85;;;0.40;;
23280;SDS011;11809;56.390;-3.266;2023-01-30T01:00:59;2.63;;;0.50;;
23280;SDS011;11809;56.390;-3.266;2023-01-30T01:03:26;1.33;;;0.35;;
23280;SDS011;11809;56.390;-3.266;2023-01-30T01:05:53;1.13;;;0.45;;
23280;SDS011;11809;56.390;-3.266;2023-01-30T01:08:19;1.42;;;0.43;;
23280;SDS011;11809;56.390;-3.266;2023-01-30T01:10:48;0.60;;;0.35;;
23280;SDS011;11809;56.390;-3.266;2023-01-30T01:13:15;2.10;;;0.50;;
23280;SDS011;11809;56.390;-3.266;2023-01-30T01:15:42;1.75;;;0.47;;
23280;SDS011;11809;56.390;-3.266;2023-01-30T01:18:09;1.08;;;0.45;;
23280;SDS011;11809;56.390;-3.266;2023-01-30T01:20:35;2.17;;;0.52;;
23280;SDS011;11809;56.390;-3.266;2023-01-30T01:23:02;1.45;;;0.52;;
23280;SDS011;11809;56.390;-3.266;2023-01-30T01:25:29;2.25;;;0.60;;
23280;SDS011;11809;56.390;-3.266;2023-01-30T01:27:56;0.70;;;0.30;;
23280;SDS011;11809;56.390;-3.266;2023-01-30T01:30:23;1.15;;;0.43;;
23280;SDS011;11809;56.390;-3.266;2023-01-30T01:32:50;1.85;;;0.55;;
23280;SDS011;11809;56.390;-3.266;2023-01-30T01:35:17;1.52;;;0.50;;
23280;SDS011;11809;56.390;-3.266;2023-01-30T01:37:45;1.52;;;0.57;;
23280;SDS011;11809;56.390;-3.266;2023-01-30T01:40:16;1.10;;;0.57;;
23280;SDS011;11809;56.390;-3.266;2023-01-30T01:43:14;1.23;;;0.60;;
23280;SDS011;11809;56.390;-3.266;2023-01-30T01:45:49;1.27;;;0.40;;
23280;SDS011;11809;56.390;-3.266;2023-01-30T01:48:27;1.23;;;0.40;;
23280;SDS011;11809;56.390;-3.266;2023-01-30T01:51:00;1.48;;;0.60;;
23280;SDS011;11809;56.390;-3.266;2023-01-30T01:53:32;2.42;;;0.70;;
23280;SDS011;11809;56.390;-3.266;2023-01-30T01:56:01;1.15;;;0.50;;
23280;SDS011;11809;56.390;-3.266;2023-01-30T01:58:40;1.45;;;0.45;;
23280;SDS011;11809;56.390;-3.266;2023-01-30T02:01:12;1.30;;;0.50;;
23280;SDS011;11809;56.390;-3.266;2023-01-30T02:03:41;1.33;;;0.50;;
23280;SDS011;11809;56.390;-3.266;2023-01-30T02:06:12;1.45;;;0.40;;
23280;SDS011;11809;56.390;-3.266;2023-01-30T02:08:51;1.45;;;0.57;;
23280;SDS011;11809;56.390;-3.266;2023-01-30T02:11:33;2.42;;;0.70;;
23280;SDS011;11809;56.390;-3.266;2023-01-30T02:14:09;4.88;;;0.70;;
23280;SDS011;11809;56.390;-3.266;2023-01-30T02:16:37;1.95;;;0.63;;
23280;SDS011;11809;56.390;-3.266;2023-01-30T02:19:05;2.08;;;0.50;;
23280;SDS011;11809;56.390;-3.266;2023-01-30T02:27:11;1.48;;;0.63;;
23280;SDS011;11809;56.390;-3.266;2023-01-30T02:29:48;1.90;;;0.70;;
23280;SDS011;11809;56.390;-3.266;2023-01-30T02:33:00;1.50;;;0.50;;
23280;SDS011;11809;56.390;-3.266;2023-01-30T02:35:46;3.08;;;0.60;;
23280;SDS011;11809;56.390;-3.266;2023-01-30T02:44:10;0.75;;;0.40;;
23280;SDS011;11809;56.390;-3.266;2023-01-30T02:49:16;0.95;;;0.43;;
23280;SDS011;11809;56.390;-3.266;2023-01-30T02:51:49;1.45;;;0.50;;
23280;SDS011;11809;56.390;-3.266;2023-01-30T02:54:17;1.38;;;0.52;;
23280;SDS011;11809;56.390;-3.266;2023-01-30T02:56:46;1.75;;;0.65;;
23280;SDS011;11809;56.390;-3.266;2023-01-30T02:59:16;1.85;;;0.60;;
23280;SDS011;11809;56.390;-3.266;2023-01-30T03:10:02;2.70;;;0.60;;
23280;SDS011;11809;56.390;-3.266;2023-01-30T03:17:38;4.65;;;1.13;;
23280;SDS011;11809;56.390;-3.266;2023-01-30T03:20:09;2.17;;;0.65;;
23280;SDS011;11809;56.390;-3.266;2023-01-30T03:22:37;1.40;;;0.50;;
23280;SDS011;11809;56.390;-3.266;2023-01-30T03:25:04;3.78;;;0.60;;
23280;SDS011;11809;56.390;-3.266;2023-01-30T03:27:32;2.67;;;1.05;;
23280;SDS011;11809;56.390;-3.266;2023-01-30T03:30:00;2.03;;;0.77;;
23280;SDS011;11809;56.390;-3.266;2023-01-30T03:32:27;3.42;;;0.90;;
23280;SDS011;11809;56.390;-3.266;2023-01-30T03:34:54;3.65;;;0.70;;
23280;SDS011;11809;56.390;-3.266;2023-01-30T03:37:21;2.55;;;0.80;;
23280;SDS011;11809;56.390;-3.266;2023-01-30T03:39:48;3.30;;;0.70;;
23280;SDS011;11809;56.390;-3.266;2023-01-30T03:42:15;2.80;;;0.70;;
23280;SDS011;11809;56.390;-3.266;2023-01-30T03:44:42;1.67;;;0.60;;
23280;SDS011;11809;56.390;-3.266;2023-01-30T03:47:08;1.52;;;0.60;;
23280;SDS011;11809;56.390;-3.266;2023-01-30T03:49:35;4.93;;;0.85;;
23280;SDS011;11809;56.390;-3.266;2023-01-30T03:52:02;1.25;;;0.55;;
23280;SDS011;11809;56.390;-3.266;2023-01-30T03:54:29;1.23;;;0.70;;
23280;SDS011;11809;56.390;-3.266;2023-01-30T03:56:56;1.77;;;0.98;;
23280;SDS011;11809;56.390;-3.266;2023-01-30T03:59:23;2.42;;;0.65;;
23280;SDS011;11809;56.390;-3.266;2023-01-30T04:01:50;4.00;;;1.10;;
23280;SDS011;11809;56.390;-3.266;2023-01-30T04:04:16;2.67;;;0.60;;
23280;SDS011;11809;56.390;-3.266;2023-01-30T04:06:43;2.47;;;0.70;;
23280;SDS011;11809;56.390;-3.266;2023-01-30T04:09:10;4.13;;;1.10;;
23280;SDS011;11809;56.390;-3.266;2023-01-30T04:11:37;4.00;;;0.77;;
23280;SDS011;11809;56.390;-3.266;2023-01-30T04:14:04;1.65;;;0.70;;
23280;SDS011;11809;56.390;-3.266;2023-01-30T04:16:31;2.75;;;0.88;;
23280;SDS011;11809;56.390;-3.266;2023-01-30T04:18:57;3.78;;;0.70;;
23280;SDS011;11809;56.390;-3.266;2023-01-30T04:21:24;2.08;;;0.70;;
23280;SDS011;11809;56.390;-3.266;2023-01-30T04:23:51;1.75;;;0.80;;
23280;SDS011;11809;56.390;-3.266;2023-01-30T04:26:18;4.00;;;1.15;;
23280;SDS011;11809;56.390;-3.266;2023-01-30T04:28:45;2.13;;;0.63;;
23280;SDS011;11809;56.390;-3.266;2023-01-30T04:31:12;2.63;;;0.77;;
23280;SDS011;11809;56.390;-3.266;2023-01-30T04:33:39;3.58;;;0.98;;
23280;SDS011;11809;56.390;-3.266;2023-01-30T04:36:07;2.30;;;0.82;;
23280;SDS011;11809;56.390;-3.266;2023-01-30T04:38:35;2.40;;;0.70;;
23280;SDS011;11809;56.390;-3.266;2023-01-30T04:41:02;2.17;;;0.70;;
23280;SDS011;11809;56.390;-3.266;2023-01-30T04:43:30;2.72;;;0.90;;
23280;SDS011;11809;56.390;-3.266;2023-01-30T04:45:57;2.40;;;0.60;;
23280;SDS011;11809;56.390;-3.266;2023-01-30T04:48:24;1.35;;;0.63;;
23280;SDS011;11809;56.390;-3.266;2023-01-30T04:50:52;1.38;;;0.50;;
23280;SDS011;11809;56.390;-3.266;2023-01-30T04:53:21;4.07;;;0.70;;
23280;SDS011;11809;56.390;-3.266;2023-01-30T04:55:49;2.55;;;0.50;;
23280;SDS011;11809;56.390;-3.266;2023-01-30T04:58:16;1.48;;;0.60;;
23280;SDS011;11809;56.390;-3.266;2023-01-30T05:00:45;2.50;;;1.02;;
23280;SDS011;11809;56.390;-3.266;2023-01-30T05:03:12;1.85;;;0.60;;
23280;SDS011;11809;56.390;-3.266;2023-01-30T05:05:40;1.17;;;0.50;;
23280;SDS011;11809;56.390;-3.266;2023-01-30T05:08:07;2.28;;;0.50;;
23280;SDS011;11809;56.390;-3.266;2023-01-30T05:10:34;1.23;;;0.47;;
23280;SDS011;11809;56.390;-3.266;2023-01-30T05:13:04;2.63;;;0.63;;
23280;SDS011;11809;56.390;-3.266;2023-01-30T05:15:31;1.25;;;0.60;;
23280;SDS011;11809;56.390;-3.266;2023-01-30T05:17:58;3.55;;;0.57;;
23280;SDS011;11809;56.390;-3.266;2023-01-30T05:20:26;1.35;;;0.55;;
23280;SDS011;11809;56.390;-3.266;2023-01-30T05:22:53;1.45;;;0.40;;
23280;SDS011;11809;56.390;-3.266;2023-01-30T05:25:20;0.93;;;0.50;;
23280;SDS011;11809;56.390;-3.266;2023-01-30T05:27:47;0.52;;;0.40;;
23280;SDS011;11809;56.390;-3.266;2023-01-30T05:30:13;1.25;;;0.45;;
23280;SDS011;11809;56.390;-3.266;2023-01-30T05:32:40;1.73;;;0.70;;
23280;SDS011;11809;56.390;-3.266;2023-01-30T05:35:07;2.13;;;0.55;;
23280;SDS011;11809;56.390;-3.266;2023-01-30T05:37:34;3.53;;;0.73;;
23280;SDS011;11809;56.390;-3.266;2023-01-30T05:40:03;7.32;;;0.90;;
23280;SDS011;11809;56.390;-3.266;2023-01-30T05:42:31;16.92;;;0.82;;
23280;SDS011;11809;56.390;-3.266;2023-01-30T05:44:58;8.73;;;0.95;;
23280;SDS011;11809;56.390;-3.266;2023-01-30T05:47:25;8.35;;;0.90;;
23280;SDS011;11809;56.390;-3.266;2023-01-30T05:49:52;3.20;;;0.70;;
23280;SDS011;11809;56.390;-3.266;2023-01-30T05:52:19;5.22;;;0.70;;
23280;SDS011;11809;56.390;-3.266;2023-01-30T05:54:46;4.65;;;0.90;;
23280;SDS011;11809;56.390;-3.266;2023-01-30T05:57:13;4.75;;;0.73;;
23280;SDS011;11809;56.390;-3.266;2023-01-30T05:59:39;9.38;;;1.50;;
23280;SDS011;11809;56.390;-3.266;2023-01-30T06:02:06;16.17;;;0.98;;
23280;SDS011;11809;56.390;-3.266;2023-01-30T06:04:36;5.70;;;0.88;;
23280;SDS011;11809;56.390;-3.266;2023-01-30T06:07:03;5.68;;;1.00;;
23280;SDS011;11809;56.390;-3.266;2023-01-30T06:09:30;2.17;;;0.60;;
23280;SDS011;11809;56.390;-3.266;2023-01-30T06:11:57;5.43;;;1.17;;
23280;SDS011;11809;56.390;-3.266;2023-01-30T06:14:23;3.50;;;1.50;;
23280;SDS011;11809;56.390;-3.266;2023-01-30T06:16:50;6.13;;;2.72;;
23280;SDS011;11809;56.390;-3.266;2023-01-30T06:19:17;7.40;;;3.30;;
23280;SDS011;11809;56.390;-3.266;2023-01-30T06:21:44;8.50;;;3.97;;
23280;SDS011;11809;56.390;-3.266;2023-01-30T06:24:11;9.50;;;3.33;;
23280;SDS011;11809;56.390;-3.266;2023-01-30T06:26:38;10.18;;;3.72;;
23280;SDS011;11809;56.390;-3.266;2023-01-30T06:29:05;7.72;;;4.00;;
23280;SDS011;11809;56.390;-3.266;2023-01-30T06:31:32;13.35;;;4.22;;
23280;SDS011;11809;56.390;-3.266;2023-01-30T06:33:59;13.90;;;3.63;;
23280;SDS011;11809;56.390;-3.266;2023-01-30T06:36:26;11.10;;;3.65;;
23280;SDS011;11809;56.390;-3.266;2023-01-30T06:38:53;13.80;;;3.58;;
23280;SDS011;11809;56.390;-3.266;2023-01-30T06:41:20;27.90;;;4.25;;
23280;SDS011;11809;56.390;-3.266;2023-01-30T06:43:47;35.22;;;4.20;;
23280;SDS011;11809;56.390;-3.266;2023-01-30T06:46:14;24.48;;;3.38;;
23280;SDS011;11809;56.390;-3.266;2023-01-30T06:48:40;18.17;;;3.15;;
23280;SDS011;11809;56.390;-3.266;2023-01-30T06:51:07;28.50;;;4.88;;
23280;SDS011;11809;56.390;-3.266;2023-01-30T06:53:34;16.20;;;2.92;;
23280;SDS011;11809;56.390;-3.266;2023-01-30T06:56:02;18.10;;;2.33;;
23280;SDS011;11809;56.390;-3.266;2023-01-30T06:58:29;10.20;;;2.33;;
23280;SDS011;11809;56.390;-3.266;2023-01-30T07:00:56;13.35;;;1.83;;
23280;SDS011;11809;56.390;-3.266;2023-01-30T07:03:23;9.55;;;1.60;;
23280;SDS011;11809;56.390;-3.266;2023-01-30T07:05:50;8.05;;;2.08;;
23280;SDS011;11809;56.390;-3.266;2023-01-30T07:08:17;7.28;;;1.50;;
23280;SDS011;11809;56.390;-3.266;2023-01-30T07:10:44;7.15;;;1.42;;
23280;SDS011;11809;56.390;-3.266;2023-01-30T07:13:11;6.10;;;1.40;;
23280;SDS011;11809;56.390;-3.266;2023-01-30T07:15:38;6.40;;;1.48;;
23280;SDS011;11809;56.390;-3.266;2023-01-30T07:18:06;4.82;;;0.95;;
23280;SDS011;11809;56.390;-3.266;2023-01-30T07:20:33;6.53;;;1.25;;
23280;SDS011;11809;56.390;-3.266;2023-01-30T07:23:00;5.00;;;1.20;;
23280;SDS011;11809;56.390;-3.266;2023-01-30T07:25:28;1.42;;;0.77;;
23280;SDS011;11809;56.390;-3.266;2023-01-30T07:27:56;5.18;;;1.30;;
23280;SDS011;11809;56.390;-3.266;2023-01-30T07:30:25;8.35;;;1.35;;
23280;SDS011;11809;56.390;-3.266;2023-01-30T07:32:54;16.20;;;2.00;;
23280;SDS011;11809;56.390;-3.266;2023-01-30T07:35:23;21.63;;;2.42;;
23280;SDS011;11809;56.390;-3.266;2023-01-30T07:37:51;12.38;;;1.83;;
23280;SDS011;11809;56.390;-3.266;2023-01-30T07:40:19;22.33;;;2.20;;
23280;SDS011;11809;56.390;-3.266;2023-01-30T07:43:03;29.25;;;1.63;;
23280;SDS011;11809;56.390;-3.266;2023-01-30T07:45:41;15.13;;;1.55;;
23280;SDS011;11809;56.390;-3.266;2023-01-30T07:48:10;6.22;;;1.20;;
23280;SDS011;11809;56.390;-3.266;2023-01-30T07:50:39;4.88;;;1.20;;
23280;SDS011;11809;56.390;-3.266;2023-01-30T07:53:06;5.90;;;1.20;;
23280;SDS011;11809;56.390;-3.266;2023-01-30T07:55:36;5.13;;;1.43;;
23280;SDS011;11809;56.390;-3.266;2023-01-30T07:58:03;3.90;;;1.02;;
23280;SDS011;11809;56.390;-3.266;2023-01-30T08:00:30;3.72;;;0.90;;
23280;SDS011;11809;56.390;-3.266;2023-01-30T08:02:58;6.55;;;1.00;;
23280;SDS011;11809;56.390;-3.266;2023-01-30T08:05:24;3.95;;;0.88;;
23280;SDS011;11809;56.390;-3.266;2023-01-30T08:07:53;3.58;;;0.88;;
23280;SDS011;11809;56.390;-3.266;2023-01-30T08:10:21;4.53;;;0.90;;
23280;SDS011;11809;56.390;-3.266;2023-01-30T08:12:49;3.40;;;0.80;;
23280;SDS011;11809;56.390;-3.266;2023-01-30T08:15:17;6.25;;;1.13;;
23280;SDS011;11809;56.390;-3.266;2023-01-30T08:17:55;2.17;;;0.82;;
23280;SDS011;11809;56.390;-3.266;2023-01-30T08:20:23;3.33;;;0.85;;
23280;SDS011;11809;56.390;-3.266;2023-01-30T08:22:51;4.45;;;0.90;;
23280;SDS011;11809;56.390;-3.266;2023-01-30T08:25:18;3.03;;;0.80;;
23280;SDS011;11809;56.390;-3.266;2023-01-30T08:27:46;2.38;;;0.70;;
23280;SDS011;11809;56.390;-3.266;2023-01-30T08:30:13;2.20;;;0.90;;
23280;SDS011;11809;56.390;-3.266;2023-01-30T08:32:40;4.47;;;0.80;;
23280;SDS011;11809;56.390;-3.266;2023-01-30T08:35:07;2.38;;;0.80;;
23280;SDS011;11809;56.390;-3.266;2023-01-30T08:37:35;3.00;;;0.85;;
23280;SDS011;11809;56.390;-3.266;2023-01-30T08:40:02;3.38;;;0.75;;
23280;SDS011;11809;56.390;-3.266;2023-01-30T08:42:29;3.70;;;0.73;;
23280;SDS011;11809;56.390;-3.266;2023-01-30T08:44:56;4.00;;;0.73;;
23280;SDS011;11809;56.390;-3.266;2023-01-30T08:47:23;2.17;;;0.60;;
23280;SDS011;11809;56.390;-3.266;2023-01-30T08:49:50;1.77;;;0.57;;
23280;SDS011;11809;56.390;-3.266;2023-01-30T08:52:18;3.58;;;0.77;;
23280;SDS011;11809;56.390;-3.266;2023-01-30T08:54:46;2.42;;;0.65;;
23280;SDS011;11809;56.390;-3.266;2023-01-30T08:57:14;2.72;;;0.65;;
23280;SDS011;11809;56.390;-3.266;2023-01-30T08:59:41;1.95;;;0.65;;
23280;SDS011;11809;56.390;-3.266;2023-01-30T09:02:11;1.55;;;0.80;;
23280;SDS011;11809;56.390;-3.266;2023-01-30T09:04:39;1.80;;;0.43;;
23280;SDS011;11809;56.390;-3.266;2023-01-30T09:07:06;2.00;;;0.57;;
23280;SDS011;11809;56.390;-3.266;2023-01-30T09:09:33;2.05;;;0.50;;
23280;SDS011;11809;56.390;-3.266;2023-01-30T09:12:00;1.85;;;0.55;;
23280;SDS011;11809;56.390;-3.266;2023-01-30T09:14:27;1.95;;;0.60;;
23280;SDS011;11809;56.390;-3.266;2023-01-30T09:16:54;1.67;;;0.40;;
23280;SDS011;11809;56.390;-3.266;2023-01-30T09:19:22;3.30;;;0.70;;
23280;SDS011;11809;56.390;-3.266;2023-01-30T09:21:51;4.25;;;0.70;;
23280;SDS011;11809;56.390;-3.266;2023-01-30T09:24:18;1.52;;;0.60;;
23280;SDS011;11809;56.390;-3.266;2023-01-30T09:26:46;2.03;;;0.60;;
23280;SDS011;11809;56.390;-3.266;2023-01-30T09:29:13;1.48;;;0.50;;
23280;SDS011;11809;56.390;-3.266;2023-01-30T09:31:40;2.20;;;0.43;;
23280;SDS011;11809;56.390;-3.266;2023-01-30T09:34:07;2.15;;;0.70;;
23280;SDS011;11809;56.390;-3.266;2023-01-30T09:36:34;2.22;;;0.50;;
23280;SDS011;11809;56.390;-3.266;2023-01-30T09:39:01;0.98;;;0.38;;
23280;SDS011;11809;56.390;-3.266;2023-01-30T09:44:54;1.10;;;0.60;;
23280;SDS011;11809;56.390;-3.266;2023-01-30T09:47:39;2.05;;;0.70;;
23280;SDS011;11809;56.390;-3.266;2023-01-30T09:53:28;2.10;;;0.60;;
23280;SDS011;11809;56.390;-3.266;2023-01-30T09:56:01;1.50;;;0.50;;
23280;SDS011;11809;56.390;-3.266;2023-01-30T09:58:36;1.98;;;0.60;;
23280;SDS011;11809;56.390;-3.266;2023-01-30T10:01:14;3.40;;;0.60;;
23280;SDS011;11809;56.390;-3.266;2023-01-30T10:04:33;1.88;;;0.50;;
23280;SDS011;11809;56.390;-3.266;2023-01-30T10:06:40;2.30;;;0.68;;
23280;SDS011;11809;56.390;-3.266;2023-01-30T10:10:03;1.17;;;0.50;;
23280;SDS011;11809;56.390;-3.266;2023-01-30T10:20:51;2.78;;;0.93;;
23280;SDS011;11809;56.390;-3.266;2023-01-30T10:25:57;1.38;;;0.55;;
23280;SDS011;11809;56.390;-3.266;2023-01-30T10:28:59;0.98;;;0.50;;
23280;SDS011;11809;56.390;-3.266;2023-01-30T10:31:43;0.70;;;0.52;;
23280;SDS011;11809;56.390;-3.266;2023-01-30T10:34:19;1.30;;;0.57;;
23280;SDS011;11809;56.390;-3.266;2023-01-30T10:36:57;1.70;;;0.60;;
23280;SDS011;11809;56.390;-3.266;2023-01-30T10:39:38;1.17;;;0.50;;
23280;SDS011;11809;56.390;-3.266;2023-01-30T10:45:12;3.80;;;0.60;;
23280;SDS011;11809;56.390;-3.266;2023-01-30T10:50:29;1.15;;;0.43;;
23280;SDS011;11809;56.390;-3.266;2023-01-30T10:55:58;2.33;;;0.60;;
23280;SDS011;11809;56.390;-3.266;2023-01-30T11:04:03;2.33;;;0.50;;
23280;SDS011;11809;56.390;-3.266;2023-01-30T11:06:40;0.93;;;0.30;;
23280;SDS011;11809;56.390;-3.266;2023-01-30T11:09:11;0.55;;;0.43;;
23280;SDS011;11809;56.390;-3.266;2023-01-30T11:11:52;0.82;;;0.43;;
23280;SDS011;11809;56.390;-3.266;2023-01-30T11:14:20;1.27;;;0.43;;
23280;SDS011;11809;56.390;-3.266;2023-01-30T11:19:29;1.05;;;0.68;;
23280;SDS011;11809;56.390;-3.266;2023-01-30T11:22:03;0.68;;;0.43;;
23280;SDS011;11809;56.390;-3.266;2023-01-30T11:29:45;1.92;;;0.77;;
23280;SDS011;11809;56.390;-3.266;2023-01-30T11:32:14;1.60;;;0.47;;
23280;SDS011;11809;56.390;-3.266;2023-01-30T11:40:06;1.48;;;0.60;;
23280;SDS011;11809;56.390;-3.266;2023-01-30T11:42:48;1.48;;;0.50;;
23280;SDS011;11809;56.390;-3.266;2023-01-30T11:45:17;2.00;;;0.43;;
23280;SDS011;11809;56.390;-3.266;2023-01-30T11:47:56;1.02;;;0.40;;
23280;SDS011;11809;56.390;-3.266;2023-01-30T11:50:31;0.93;;;0.40;;
23280;SDS011;11809;56.390;-3.266;2023-01-30T11:53:37;1.42;;;0.40;;
23280;SDS011;11809;56.390;-3.266;2023-01-30T11:58:40;1.30;;;0.32;;
23280;SDS011;11809;56.390;-3.266;2023-01-30T12:01:13;1.35;;;0.43;;
23280;SDS011;11809;56.390;-3.266;2023-01-30T12:03:46;2.55;;;0.65;;
23280;SDS011;11809;56.390;-3.266;2023-01-30T12:06:22;1.15;;;0.50;;
23280;SDS011;11809;56.390;-3.266;2023-01-30T12:08:54;1.48;;;0.50;;
23280;SDS011;11809;56.390;-3.266;2023-01-30T12:11:28;0.88;;;0.40;;
23280;SDS011;11809;56.390;-3.266;2023-01-30T12:14:12;2.75;;;0.55;;
23280;SDS011;11809;56.390;-3.266;2023-01-30T12:16:45;2.47;;;0.50;;
23280;SDS011;11809;56.390;-3.266;2023-01-30T12:19:25;0.98;;;0.45;;
23280;SDS011;11809;56.390;-3.266;2023-01-30T12:22:37;1.58;;;0.68;;
23280;SDS011;11809;56.390;-3.266;2023-01-30T12:25:25;1.05;;;0.50;;
23280;SDS011;11809;56.390;-3.266;2023-01-30T12:27:57;2.25;;;0.50;;
23280;SDS011;11809;56.390;-3.266;2023-01-30T12:30:31;2.88;;;0.35;;
23280;SDS011;11809;56.390;-3.266;2023-01-30T12:33:04;2.15;;;0.57;;
23280;SDS011;11809;56.390;-3.266;2023-01-30T12:35:40;0.68;;;0.40;;
23280;SDS011;11809;56.390;-3.266;2023-01-30T12:54:25;1.45;;;0.32;;
23280;SDS011;11809;56.390;-3.266;2023-01-30T12:59:46;1.65;;;0.30;;
23280;SDS011;11809;56.390;-3.266;2023-01-30T13:02:32;2.47;;;0.30;;
23280;SDS011;11809;56.390;-3.266;2023-01-30T13:19:10;0.68;;;0.43;;
23280;SDS011;11809;56.390;-3.266;2023-01-30T13:21:55;1.80;;;0.40;;
23280;SDS011;11809;56.390;-3.266;2023-01-30T13:27:12;1.30;;;0.40;;
23280;SDS011;11809;56.390;-3.266;2023-01-30T13:29:42;1.77;;;0.45;;
23280;SDS011;11809;56.390;-3.266;2023-01-30T13:34:47;1.10;;;0.30;;
23280;SDS011;11809;56.390;-3.266;2023-01-30T13:37:16;0.77;;;0.40;;
23280;SDS011;11809;56.390;-3.266;2023-01-30T13:39:49;1.48;;;0.40;;
23280;SDS011;11809;56.390;-3.266;2023-01-30T13:45:16;2.20;;;0.68;;
23280;SDS011;11809;56.390;-3.266;2023-01-30T13:48:27;0.80;;;0.40;;
23280;SDS011;11809;56.390;-3.266;2023-01-30T13:56:19;2.78;;;0.70;;
23280;SDS011;11809;56.390;-3.266;2023-01-30T14:17:58;2.35;;;0.60;;
23280;SDS011;11809;56.390;-3.266;2023-01-30T14:20:43;1.67;;;0.57;;
23280;SDS011;11809;56.390;-3.266;2023-01-30T14:34:43;8.55;;;0.65;;
23280;SDS011;11809;56.390;-3.266;2023-01-30T14:40:46;1.52;;;0.40;;
23280;SDS011;11809;56.390;-3.266;2023-01-30T14:45:48;8.68;;;1.20;;
23280;SDS011;11809;56.390;-3.266;2023-01-30T15:13:12;22.92;;;2.60;;
23280;SDS011;11809;56.390;-3.266;2023-01-30T15:21:24;11.25;;;1.45;;
23280;SDS011;11809;56.390;-3.266;2023-01-30T15:33:05;11.75;;;1.50;;
23280;SDS011;11809;56.390;-3.266;2023-01-30T15:35:55;11.93;;;1.30;;
23280;SDS011;11809;56.390;-3.266;2023-01-30T15:38:29;13.00;;;2.13;;
23280;SDS011;11809;56.390;-3.266;2023-01-30T15:41:02;9.70;;;1.58;;
23280;SDS011;11809;56.390;-3.266;2023-01-30T15:46:16;10.30;;;1.63;;
23280;SDS011;11809;56.390;-3.266;2023-01-30T15:49:01;6.65;;;1.33;;
23280;SDS011;11809;56.390;-3.266;2023-01-30T15:51:37;12.35;;;2.13;;
23280;SDS011;11809;56.390;-3.266;2023-01-30T15:54:08;10.73;;;1.30;;
23280;SDS011;11809;56.390;-3.266;2023-01-30T15:56:36;9.15;;;1.92;;
23280;SDS011;11809;56.390;-3.266;2023-01-30T15:59:06;59.95;;;28.85;;
23280;SDS011;11809;56.390;-3.266;2023-01-30T16:01:34;61.05;;;26.92;;
23280;SDS011;11809;56.390;-3.266;2023-01-30T16:04:01;58.97;;;31.73;;
23280;SDS011;11809;56.390;-3.266;2023-01-30T16:06:34;42.67;;;19.42;;
23280;SDS011;11809;56.390;-3.266;2023-01-30T16:11:44;30.55;;;8.43;;
23280;SDS011;11809;56.390;-3.266;2023-01-30T16:14:12;13.48;;;5.53;;
23280;SDS011;11809;56.390;-3.266;2023-01-30T16:16:42;9.20;;;3.50;;
23280;SDS011;11809;56.390;-3.266;2023-01-30T16:19:21;9.23;;;2.70;;
23280;SDS011;11809;56.390;-3.266;2023-01-30T16:21:51;6.60;;;2.08;;
23280;SDS011;11809;56.390;-3.266;2023-01-30T16:24:23;7.00;;;2.05;;
23280;SDS011;11809;56.390;-3.266;2023-01-30T16:29:26;6.57;;;1.60;;
23280;SDS011;11809;56.390;-3.266;2023-01-30T16:31:56;7.78;;;1.40;;
23280;SDS011;11809;56.390;-3.266;2023-01-30T16:36:58;8.55;;;1.60;;
23280;SDS011;11809;56.390;-3.266;2023-01-30T16:39:32;20.58;;;1.92;;
23280;SDS011;11809;56.390;-3.266;2023-01-30T16:42:01;12.95;;;2.17;;
23280;SDS011;11809;56.390;-3.266;2023-01-30T16:44:49;36.70;;;3.70;;
23280;SDS011;11809;56.390;-3.266;2023-01-30T16:47:24;33.22;;;2.50;;
23280;SDS011;11809;56.390;-3.266;2023-01-30T16:49:53;46.28;;;3.58;;
23280;SDS011;11809;56.390;-3.266;2023-01-30T16:52:44;45.55;;;3.72;;
23280;SDS011;11809;56.390;-3.266;2023-01-30T16:55:22;26.55;;;2.92;;
23280;SDS011;11809;56.390;-3.266;2023-01-30T16:57:54;18.90;;;2.03;;
23280;SDS011;11809;56.390;-3.266;2023-01-30T17:00:35;11.15;;;1.90;;
23280;SDS011;11809;56.390;-3.266;2023-01-30T17:05:55;23.27;;;2.30;;
23280;SDS011;11809;56.390;-3.266;2023-01-30T17:10:58;18.48;;;2.30;;
23280;SDS011;11809;56.390;-3.266;2023-01-30T17:18:49;7.60;;;1.40;;
23280;SDS011;11809;56.390;-3.266;2023-01-30T17:21:18;11.32;;;1.23;;
23280;SDS011;11809;56.390;-3.266;2023-01-30T17:23:53;5.15;;;1.42;;
23280;SDS011;11809;56.390;-3.266;2023-01-30T17:26:24;10.68;;;2.53;;
23280;SDS011;11809;56.390;-3.266;2023-01-30T17:28:51;7.63;;;1.70;;
23280;SDS011;11809;56.390;-3.266;2023-01-30T17:31:18;15.88;;;1.58;;
23280;SDS011;11809;56.390;-3.266;2023-01-30T17:33:46;18.23;;;2.20;;
23280;SDS011;11809;56.390;-3.266;2023-01-30T17:36:26;12.63;;;1.50;;
23280;SDS011;11809;56.390;-3.266;2023-01-30T17:38:56;11.30;;;1.65;;
23280;SDS011;11809;56.390;-3.266;2023-01-30T17:41:25;8.82;;;1.40;;
23280;SDS011;11809;56.390;-3.266;2023-01-30T17:43:56;4.63;;;1.33;;
23280;SDS011;11809;56.390;-3.266;2023-01-30T17:46:26;53.95;;;3.53;;
23280;SDS011;11809;56.390;-3.266;2023-01-30T17:48:59;22.73;;;2.10;;
23280;SDS011;11809;56.390;-3.266;2023-01-30T17:51:26;8.52;;;1.50;;
23280;SDS011;11809;56.390;-3.266;2023-01-30T17:53:53;7.72;;;1.60;;
23280;SDS011;11809;56.390;-3.266;2023-01-30T17:56:26;7.18;;;1.13;;
23280;SDS011;11809;56.390;-3.266;2023-01-30T17:59:04;7.03;;;1.23;;
23280;SDS011;11809;56.390;-3.266;2023-01-30T18:01:33;8.90;;;1.40;;
23280;SDS011;11809;56.390;-3.266;2023-01-30T18:04:00;10.35;;;1.40;;
23280;SDS011;11809;56.390;-3.266;2023-01-30T18:06:27;8.13;;;0.93;;
23280;SDS011;11809;56.390;-3.266;2023-01-30T18:08:57;15.05;;;2.13;;
23280;SDS011;11809;56.390;-3.266;2023-01-30T18:11:24;15.98;;;2.40;;
23280;SDS011;11809;56.390;-3.266;2023-01-30T18:13:51;21.27;;;2.00;;
23280;SDS011;11809;56.390;-3.266;2023-01-30T18:16:23;17.50;;;1.88;;
23280;SDS011;11809;56.390;-3.266;2023-01-30T18:18:54;16.42;;;1.92;;
23280;SDS011;11809;56.390;-3.266;2023-01-30T18:21:21;22.42;;;1.83;;
23280;SDS011;11809;56.390;-3.266;2023-01-30T18:23:48;12.52;;;1.77;;
23280;SDS011;11809;56.390;-3.266;2023-01-30T18:26:16;13.38;;;1.48;;
23280;SDS011;11809;56.390;-3.266;2023-01-30T18:28:44;9.07;;;1.30;;
23280;SDS011;11809;56.390;-3.266;2023-01-30T18:31:11;13.80;;;1.73;;